Time;durP1;ratioP1;P1;durP2;ratioP2;P2;SDS_P1;SDS_P2;PMS_P1;PMS_P2;Temp;Humidity;BMP_temperature;BMP_pressure;BME280_temperature;BME280_humidity;BME280_pressure;Samples;Min_cycle;Max_cycle;Signal;HPM_P1;HPM_P2
2023/08/31 00:00:40;;;;;;;7.35;6.60;;;22.60;99.90;;;;;;6201261;28;93438;-65
2023/08/31 00:03:44;;;;;;;8.27;7.47;;;22.70;99.90;;;;;;6203545;28;94394;-65
2023/08/31 00:06:46;;;;;;;8.02;7.22;;;22.60;99.90;;;;;;6194904;28;94400;-65
2023/08/31 00:09:48;;;;;;;8.00;7.20;;;22.70;99.90;;;;;;6195116;28;95089;-66
2023/08/31 00:12:52;;;;;;;8.85;7.95;;;22.60;99.90;;;;;;6191866;28;94542;-65
2023/08/31 00:15:57;;;;;;;8.73;7.72;;;22.60;99.90;;;;;;6202916;28;94261;-65
2023/08/31 00:18:59;;;;;;;8.77;7.88;;;22.60;99.90;;;;;;6200306;28;94039;-65
2023/08/31 00:22:00;;;;;;;9.32;8.40;;;22.60;99.90;;;;;;6211728;28;94208;-65
2023/08/31 00:25:02;;;;;;;8.80;7.88;;;22.60;99.90;;;;;;6202224;28;94069;-65
2023/08/31 00:28:07;;;;;;;8.75;7.95;;;22.60;99.90;;;;;;6202954;28;94046;-66
2023/08/31 00:31:10;;;;;;;8.55;7.75;;;22.60;99.90;;;;;;6203632;28;93334;-65
2023/08/31 00:34:14;;;;;;;8.25;7.45;;;22.60;99.90;;;;;;6192610;28;94051;-66
2023/08/31 00:37:16;;;;;;;8.13;7.30;;;22.60;99.90;;;;;;6200239;28;94212;-65
2023/08/31 00:40:18;;;;;;;8.07;7.28;;;22.60;99.90;;;;;;6190833;28;94984;-65
2023/08/31 00:43:22;;;;;;;7.63;6.93;;;22.60;99.90;;;;;;6200245;28;94386;-65
2023/08/31 00:46:24;;;;;;;8.02;7.22;;;22.60;99.90;;;;;;6199690;28;94102;-65
2023/08/31 00:49:26;;;;;;;8.15;7.30;;;22.60;99.90;;;;;;6191505;28;94036;-66
2023/08/31 00:52:28;;;;;;;7.47;6.78;;;22.60;99.90;;;;;;6191314;28;94146;-65
2023/08/31 00:55:31;;;;;;;7.50;6.80;;;22.60;99.90;;;;;;6194466;28;94447;-65
2023/08/31 00:58:35;;;;;;;8.48;7.68;;;22.60;99.90;;;;;;6199925;28;94318;-65
2023/08/31 01:01:42;;;;;;;9.57;8.25;;;22.60;99.90;;;;;;6201055;28;94094;-65
2023/08/31 01:04:54;;;;;;;8.68;7.88;;;22.60;99.90;;;;;;6201237;28;94375;-65
2023/08/31 01:08:04;;;;;;;9.27;8.38;;;22.60;99.90;;;;;;6198982;28;94400;-65
2023/08/31 01:11:16;;;;;;;9.48;8.57;;;22.60;99.90;;;;;;6201619;28;94694;-65
2023/08/31 01:14:24;;;;;;;9.15;8.25;;;22.60;99.90;;;;;;6201802;28;95320;-65
2023/08/31 01:17:29;;;;;;;9.35;8.45;;;22.60;99.90;;;;;;6200342;28;94052;-65
2023/08/31 01:20:35;;;;;;;9.18;8.27;;;22.60;99.90;;;;;;6201174;28;94183;-65
2023/08/31 01:23:55;;;;;;;9.38;8.48;;;22.60;99.90;;;;;;6198788;28;93988;-65
2023/08/31 01:26:57;;;;;;;10.13;8.60;;;22.60;99.90;;;;;;6198884;28;92974;-65
2023/08/31 01:29:59;;;;;;;9.55;8.65;;;22.60;99.90;;;;;;6203681;28;94150;-65
2023/08/31 01:33:02;;;;;;;9.43;8.45;;;22.60;99.90;;;;;;6193322;28;93524;-65
2023/08/31 01:36:09;;;;;;;9.25;8.00;;;22.60;99.90;;;;;;6200612;28;94106;-65
2023/08/31 01:39:19;;;;;;;9.43;8.52;;;22.60;99.90;;;;;;6202780;28;94353;-65
2023/08/31 01:42:23;;;;;;;8.13;7.32;;;22.60;99.90;;;;;;6189636;28;94627;-65
2023/08/31 01:45:26;;;;;;;8.48;7.60;;;22.60;99.90;;;;;;6202087;28;94057;-65
2023/08/31 01:48:28;;;;;;;8.52;7.63;;;22.60;99.90;;;;;;6200905;28;94137;-65
2023/08/31 01:51:30;;;;;;;8.30;7.50;;;22.60;99.90;;;;;;6193953;28;94395;-65
2023/08/31 01:54:34;;;;;;;9.15;8.25;;;22.60;99.90;;;;;;6194907;28;94287;-65
2023/08/31 01:57:36;;;;;;;10.02;9.02;;;22.60;99.90;;;;;;6200611;28;94107;-66
2023/08/31 02:00:38;;;;;;;10.23;9.23;;;22.60;99.90;;;;;;6202876;28;94119;-65
2023/08/31 02:03:40;;;;;;;10.43;9.10;;;22.60;99.90;;;;;;6201977;28;93667;-65
2023/08/31 02:06:42;;;;;;;10.70;9.60;;;22.60;99.90;;;;;;6192750;28;94043;-66
2023/08/31 02:09:46;;;;;;;9.52;8.52;;;22.60;99.90;;;;;;6192114;28;94023;-65
2023/08/31 02:12:48;;;;;;;10.27;8.93;;;22.60;99.90;;;;;;6201194;28;94018;-66
2023/08/31 02:15:53;;;;;;;10.27;8.50;;;22.60;99.90;;;;;;6200639;28;94131;-65
2023/08/31 02:18:55;;;;;;;9.98;9.05;;;22.60;99.90;;;;;;6190243;28;94046;-65
2023/08/31 02:21:57;;;;;;;9.23;8.32;;;22.60;99.90;;;;;;6197807;28;94076;-65
2023/08/31 02:25:01;;;;;;;10.13;9.05;;;22.60;99.90;;;;;;6196348;28;94124;-65
2023/08/31 02:28:03;;;;;;;10.13;9.07;;;22.60;99.90;;;;;;6203832;28;94422;-65
2023/08/31 02:31:05;;;;;;;10.27;9.25;;;22.60;99.90;;;;;;6202599;28;93444;-65
2023/08/31 02:34:07;;;;;;;9.93;8.93;;;22.60;99.90;;;;;;6201198;28;93424;-66
2023/08/31 02:37:09;;;;;;;9.85;8.85;;;22.60;99.90;;;;;;6201484;28;94089;-65
2023/08/31 02:40:13;;;;;;;9.90;8.90;;;22.60;99.90;;;;;;6195650;28;94570;-65
2023/08/31 02:43:15;;;;;;;10.43;9.43;;;22.60;99.90;;;;;;6199261;28;95064;-65
2023/08/31 02:46:16;;;;;;;9.75;8.77;;;22.50;99.90;;;;;;6201003;28;94498;-66
2023/08/31 02:49:19;;;;;;;9.75;8.75;;;22.60;99.90;;;;;;6200063;28;94418;-65
2023/08/31 02:52:20;;;;;;;10.45;9.35;;;22.60;99.90;;;;;;6193079;28;94210;-65
2023/08/31 02:55:24;;;;;;;10.18;9.10;;;22.60;99.90;;;;;;6198152;28;93086;-65
2023/08/31 02:58:26;;;;;;;10.35;9.35;;;22.60;99.90;;;;;;6190246;28;94106;-66
2023/08/31 03:01:28;;;;;;;10.50;9.50;;;22.60;99.90;;;;;;6196009;28;94130;-65
2023/08/31 03:04:30;;;;;;;9.95;8.95;;;22.50;99.90;;;;;;6201369;28;93403;-65
2023/08/31 03:07:32;;;;;;;10.45;9.35;;;22.60;99.90;;;;;;6196309;28;94248;-65
2023/08/31 03:10:37;;;;;;;10.27;9.18;;;22.60;99.90;;;;;;6197800;28;94415;-66
2023/08/31 03:13:39;;;;;;;10.70;9.63;;;22.50;99.90;;;;;;6197029;28;94157;-65
2023/08/31 03:16:41;;;;;;;8.85;7.97;;;22.50;99.90;;;;;;6190969;28;94026;-65
2023/08/31 03:19:43;;;;;;;9.20;8.25;;;22.50;99.90;;;;;;6189246;28;94350;-65
2023/08/31 03:22:45;;;;;;;9.75;8.75;;;22.50;99.90;;;;;;6199219;28;94040;-65
2023/08/31 03:25:48;;;;;;;10.13;9.13;;;22.60;99.90;;;;;;6197646;28;94121;-65
2023/08/31 03:28:50;;;;;;;10.48;9.38;;;22.60;99.90;;;;;;6194303;28;94125;-65
2023/08/31 03:31:52;;;;;;;9.90;8.90;;;22.50;99.90;;;;;;6192522;28;94125;-65
2023/08/31 03:34:54;;;;;;;10.35;9.35;;;22.50;99.90;;;;;;6196363;28;93349;-65
2023/08/31 03:37:57;;;;;;;10.15;9.23;;;22.60;99.90;;;;;;6196534;28;94059;-65
2023/08/31 03:41:00;;;;;;;9.30;8.40;;;22.50;99.90;;;;;;6201573;28;94125;-65
2023/08/31 03:44:02;;;;;;;10.40;9.40;;;22.50;99.90;;;;;;6200267;28;95130;-65
2023/08/31 03:47:05;;;;;;;10.65;9.40;;;22.50;99.90;;;;;;6205214;28;92695;-65
2023/08/31 03:50:08;;;;;;;10.70;9.60;;;22.50;99.90;;;;;;6192215;28;95130;-65
2023/08/31 03:53:10;;;;;;;10.60;9.50;;;22.50;99.90;;;;;;6204123;28;94100;-65
2023/08/31 03:56:13;;;;;;;10.50;9.50;;;22.60;99.90;;;;;;6205961;28;93003;-65
2023/08/31 03:59:15;;;;;;;9.98;8.60;;;22.50;99.90;;;;;;6205481;28;96405;-65
2023/08/31 04:02:17;;;;;;;9.57;8.68;;;22.50;99.90;;;;;;6201621;28;94590;-65
2023/08/31 04:05:19;;;;;;;10.68;9.40;;;22.60;99.90;;;;;;6199980;28;93357;-65
2023/08/31 04:08:21;;;;;;;11.20;8.90;;;22.60;99.90;;;;;;6199043;28;94410;-67
2023/08/31 04:11:25;;;;;;;12.77;10.23;;;22.50;99.90;;;;;;6195876;28;94171;-65
2023/08/31 04:14:27;;;;;;;10.73;9.63;;;22.50;99.90;;;;;;6196425;28;95053;-65
2023/08/31 04:17:29;;;;;;;12.45;8.80;;;22.50;99.90;;;;;;6189030;28;94662;-67
2023/08/31 04:20:31;;;;;;;12.65;10.07;;;22.50;99.90;;;;;;6205083;28;93958;-66
2023/08/31 04:23:33;;;;;;;12.25;10.40;;;22.60;99.90;;;;;;6203490;28;94068;-65
2023/08/31 04:26:37;;;;;;;11.40;10.07;;;22.60;99.90;;;;;;6199067;28;94129;-66
2023/08/31 04:29:39;;;;;;;15.48;13.98;;;22.60;99.90;;;;;;6201607;28;93996;-67
2023/08/31 04:32:41;;;;;;;14.93;13.50;;;22.60;99.90;;;;;;6204670;28;94090;-65
2023/08/31 04:35:43;;;;;;;13.27;11.98;;;22.60;99.90;;;;;;6195167;28;93110;-65
2023/08/31 04:38:45;;;;;;;20.23;18.52;;;22.70;99.90;;;;;;6195387;28;94125;-66
2023/08/31 04:41:48;;;;;;;20.40;18.40;;;22.60;99.90;;;;;;6202986;28;94074;-66
2023/08/31 04:44:50;;;;;;;17.90;16.30;;;22.70;99.90;;;;;;6196161;28;95083;-65
2023/08/31 04:47:52;;;;;;;23.42;21.50;;;22.70;99.90;;;;;;6196436;28;94141;-65
2023/08/31 04:50:57;;;;;;;21.98;20.08;;;22.70;99.90;;;;;;6191760;28;94056;-66
2023/08/31 04:53:59;;;;;;;16.30;14.80;;;22.70;99.90;;;;;;6200986;28;94031;-67
2023/08/31 04:57:03;;;;;;;13.73;12.27;;;22.80;99.90;;;;;;6195908;28;93276;-66
2023/08/31 05:00:08;;;;;;;23.88;16.48;;;22.70;99.90;;;;;;6190900;28;94075;-65
2023/08/31 05:03:10;;;;;;;43.30;25.67;;;22.70;99.90;;;;;;6200349;28;94257;-66
2023/08/31 05:06:12;;;;;;;47.58;30.38;;;22.80;99.90;;;;;;6202760;28;93291;-65
2023/08/31 05:09:14;;;;;;;50.80;30.60;;;22.70;99.90;;;;;;6201306;28;94097;-65
2023/08/31 05:12:18;;;;;;;46.78;27.88;;;22.70;99.90;;;;;;6202464;28;94102;-66
2023/08/31 05:15:20;;;;;;;42.95;26.58;;;22.70;99.90;;;;;;6201093;28;94991;-65
2023/08/31 05:18:22;;;;;;;44.25;26.52;;;22.70;99.90;;;;;;6201123;28;94613;-65
2023/08/31 05:21:24;;;;;;;41.55;24.63;;;22.70;99.90;;;;;;6191549;28;94295;-66
2023/08/31 05:24:26;;;;;;;42.17;25.35;;;22.70;99.90;;;;;;6199076;28;94137;-65
2023/08/31 05:27:29;;;;;;;35.47;22.70;;;22.70;99.90;;;;;;6202151;28;94134;-66
2023/08/31 05:30:33;;;;;;;36.20;21.35;;;22.70;99.90;;;;;;6203177;28;94253;-66
2023/08/31 05:33:36;;;;;;;31.42;19.90;;;22.70;99.90;;;;;;6201491;28;94180;-66
2023/08/31 05:36:38;;;;;;;36.05;20.58;;;22.70;99.90;;;;;;6201732;28;92063;-67
2023/08/31 05:39:39;;;;;;;26.75;19.08;;;22.70;99.90;;;;;;6202223;28;94145;-66
2023/08/31 05:42:43;;;;;;;28.75;18.30;;;22.70;99.90;;;;;;6202234;28;94112;-66
2023/08/31 05:45:46;;;;;;;28.80;18.88;;;22.60;99.90;;;;;;6199618;28;95042;-66
2023/08/31 05:48:48;;;;;;;27.55;18.52;;;22.60;99.90;;;;;;6197548;28;94052;-66
2023/08/31 05:51:50;;;;;;;27.73;18.15;;;22.70;99.90;;;;;;6193090;28;94063;-67
2023/08/31 05:54:52;;;;;;;25.10;17.63;;;22.60;99.90;;;;;;6194319;28;94042;-66
2023/08/31 05:57:56;;;;;;;25.10;16.38;;;22.60;99.90;;;;;;6199984;28;94256;-66
2023/08/31 06:00:58;;;;;;;27.60;16.50;;;22.60;99.90;;;;;;6190757;28;95035;-66
2023/08/31 06:04:00;;;;;;;25.48;16.25;;;22.70;99.90;;;;;;6200495;28;94540;-66
2023/08/31 06:07:02;;;;;;;22.63;16.25;;;22.60;99.90;;;;;;6195777;28;93321;-66
2023/08/31 06:10:05;;;;;;;23.35;15.93;;;22.60;99.90;;;;;;6196994;28;93958;-66
2023/08/31 06:13:09;;;;;;;24.23;15.57;;;22.60;99.90;;;;;;6201088;28;94650;-66
2023/08/31 06:16:10;;;;;;;26.95;15.90;;;22.60;99.90;;;;;;6197831;28;95335;-66
2023/08/31 06:19:15;;;;;;;22.20;15.65;;;22.60;99.90;;;;;;6201936;28;94382;-66
2023/08/31 06:22:17;;;;;;;21.90;15.02;;;22.60;99.90;;;;;;6191692;28;94047;-66
2023/08/31 06:25:22;;;;;;;19.60;14.23;;;22.60;99.90;;;;;;6194008;28;94061;-67
2023/08/31 06:28:25;;;;;;;20.23;14.05;;;22.60;99.90;;;;;;6198821;28;94199;-66
2023/08/31 06:31:27;;;;;;;18.08;13.68;;;22.60;99.90;;;;;;6200931;28;94286;-66
2023/08/31 06:34:30;;;;;;;17.95;14.05;;;22.60;99.90;;;;;;6193039;28;94131;-66
2023/08/31 06:37:32;;;;;;;17.70;13.20;;;22.60;99.90;;;;;;6196134;28;93350;-66
2023/08/31 06:40:34;;;;;;;17.42;13.00;;;22.60;99.90;;;;;;6200781;28;94078;-66
2023/08/31 06:43:38;;;;;;;16.70;12.95;;;22.60;99.90;;;;;;6202836;28;94026;-66
2023/08/31 06:46:40;;;;;;;16.58;13.30;;;22.60;99.90;;;;;;6199209;28;95093;-66
2023/08/31 06:49:41;;;;;;;17.55;12.52;;;22.60;99.90;;;;;;6194499;28;94131;-66
2023/08/31 06:52:46;;;;;;;15.23;12.02;;;22.60;99.90;;;;;;6189395;28;94159;-66
2023/08/31 06:55:48;;;;;;;16.83;11.73;;;22.60;99.90;;;;;;6199082;28;93946;-67
2023/08/31 06:58:51;;;;;;;15.23;11.80;;;22.60;99.90;;;;;;6200827;28;94210;-66
2023/08/31 07:01:53;;;;;;;16.67;12.25;;;22.60;99.90;;;;;;6197998;28;94237;-66
2023/08/31 07:04:55;;;;;;;16.13;10.93;;;22.60;99.90;;;;;;6197678;28;94071;-67
2023/08/31 07:07:58;;;;;;;13.63;11.05;;;22.60;99.90;;;;;;6200162;28;93938;-66
2023/08/31 07:11:00;;;;;;;13.88;10.68;;;22.60;99.90;;;;;;6201379;28;93844;-66
2023/08/31 07:14:03;;;;;;;14.77;11.00;;;22.60;99.90;;;;;;6200297;28;94029;-66
2023/08/31 07:17:05;;;;;;;14.27;10.80;;;22.60;99.90;;;;;;6195079;28;95522;-66
2023/08/31 07:20:09;;;;;;;15.75;11.32;;;22.60;99.90;;;;;;6191000;28;94323;-67
2023/08/31 07:23:11;;;;;;;12.35;10.38;;;22.60;99.90;;;;;;6189108;28;94103;-67
2023/08/31 07:26:13;;;;;;;13.07;10.48;;;22.60;99.90;;;;;;6204732;28;94050;-67
2023/08/31 07:29:16;;;;;;;12.45;10.48;;;22.60;99.90;;;;;;6194255;28;92902;-66
2023/08/31 07:32:18;;;;;;;14.10;10.73;;;22.70;99.90;;;;;;6194720;28;94305;-66
2023/08/31 07:35:20;;;;;;;13.10;10.20;;;22.70;99.90;;;;;;6201572;28;94092;-66
2023/08/31 07:38:22;;;;;;;13.10;9.93;;;22.70;99.90;;;;;;6186749;28;93803;-67
2023/08/31 07:41:24;;;;;;;12.25;9.88;;;22.70;99.90;;;;;;6202988;28;93042;-67
2023/08/31 07:44:28;;;;;;;12.90;9.80;;;22.70;99.90;;;;;;6198282;28;94104;-66
2023/08/31 07:47:29;;;;;;;11.50;9.43;;;22.70;99.90;;;;;;6200778;28;95061;-66
2023/08/31 07:50:31;;;;;;;11.60;8.85;;;22.70;99.90;;;;;;6201570;28;94007;-67
2023/08/31 07:53:33;;;;;;;11.63;9.48;;;22.70;99.90;;;;;;6193578;28;94033;-66
2023/08/31 07:56:35;;;;;;;12.80;9.95;;;22.70;99.90;;;;;;6203398;28;95591;-67
2023/08/31 07:59:39;;;;;;;12.13;9.32;;;22.70;99.90;;;;;;6204294;28;94194;-67
2023/08/31 08:02:41;;;;;;;10.85;8.73;;;22.70;99.90;;;;;;6188158;28;94095;-66
2023/08/31 08:05:43;;;;;;;11.70;9.07;;;22.60;99.90;;;;;;6196780;28;94052;-66
2023/08/31 08:08:45;;;;;;;10.07;8.80;;;22.60;99.90;;;;;;6201243;28;93302;-67
2023/08/31 08:11:47;;;;;;;22.83;11.40;;;22.70;99.90;;;;;;6199315;28;94065;-67
2023/08/31 08:14:50;;;;;;;12.82;9.35;;;22.70;99.90;;;;;;6199436;28;94050;-67
2023/08/31 08:17:53;;;;;;;11.52;8.82;;;22.60;99.90;;;;;;6193988;28;95075;-68
2023/08/31 08:20:55;;;;;;;15.27;9.02;;;22.70;99.90;;;;;;6203092;28;94695;-67
2023/08/31 08:23:57;;;;;;;11.90;8.35;;;22.70;99.90;;;;;;6188404;28;94100;-67
2023/08/31 08:26:59;;;;;;;11.52;8.80;;;22.70;99.90;;;;;;6197261;28;94056;-67
2023/08/31 08:30:03;;;;;;;11.25;8.15;;;22.70;99.90;;;;;;6192844;28;94171;-66
2023/08/31 08:33:05;;;;;;;9.93;7.82;;;22.70;99.90;;;;;;6194580;28;94085;-67
2023/08/31 08:36:07;;;;;;;9.68;7.88;;;22.70;99.90;;;;;;6198736;28;94120;-67
2023/08/31 08:39:09;;;;;;;9.10;7.43;;;22.70;99.90;;;;;;6199638;28;93443;-66
2023/08/31 08:42:12;;;;;;;9.32;7.85;;;22.70;99.90;;;;;;6194829;28;94428;-67
2023/08/31 08:45:16;;;;;;;9.43;7.87;;;22.70;99.90;;;;;;6203161;28;94428;-66
2023/08/31 08:48:19;;;;;;;7.40;6.65;;;22.70;99.90;;;;;;6194390;28;95345;-66
2023/08/31 08:51:22;;;;;;;8.18;7.35;;;22.70;99.90;;;;;;6202037;28;94127;-67
2023/08/31 08:54:24;;;;;;;8.88;6.93;;;22.70;99.90;;;;;;6198408;28;94106;-67
2023/08/31 08:57:26;;;;;;;8.02;7.22;;;22.70;99.90;;;;;;6197423;28;94055;-67
2023/08/31 09:00:30;;;;;;;7.53;6.75;;;22.70;99.90;;;;;;6200379;28;94176;-67
2023/08/31 09:03:32;;;;;;;7.45;6.72;;;22.70;99.90;;;;;;6202871;28;93978;-67
2023/08/31 09:06:34;;;;;;;6.88;6.18;;;22.70;99.90;;;;;;6195529;28;94108;-66
2023/08/31 09:09:50;;;;;;;6.95;6.25;;;22.70;99.90;;;;;;6202104;28;94976;-66
2023/08/31 09:12:52;;;;;;;8.13;6.82;;;22.70;99.90;;;;;;6204133;28;94057;-67
2023/08/31 09:15:55;;;;;;;6.88;6.07;;;22.70;99.90;;;;;;6202392;28;94009;-66
2023/08/31 09:18:58;;;;;;;8.00;6.60;;;22.70;99.90;;;;;;6201655;28;94988;-66
2023/08/31 09:22:00;;;;;;;8.18;6.32;;;22.70;99.90;;;;;;6199103;28;94142;-66
2023/08/31 09:25:02;;;;;;;6.80;6.13;;;22.70;99.90;;;;;;6200700;28;94075;-66
2023/08/31 09:28:05;;;;;;;6.70;6.10;;;22.70;99.90;;;;;;6198699;28;94143;-66
2023/08/31 09:31:09;;;;;;;6.25;5.65;;;22.80;99.90;;;;;;6200750;28;94024;-66
2023/08/31 09:34:11;;;;;;;7.70;6.20;;;22.70;99.90;;;;;;6199647;28;94517;-66
2023/08/31 09:37:16;;;;;;;7.13;5.93;;;22.70;99.90;;;;;;6196955;28;95104;-66
2023/08/31 09:40:18;;;;;;;6.70;6.00;;;22.70;99.90;;;;;;6197686;28;93988;-66
2023/08/31 09:43:21;;;;;;;6.30;5.70;;;22.70;99.90;;;;;;6192632;28;94427;-66
2023/08/31 09:46:25;;;;;;;6.88;6.03;;;22.70;99.90;;;;;;6198674;28;94078;-66
2023/08/31 09:49:28;;;;;;;6.78;5.90;;;22.70;99.90;;;;;;6199219;28;95193;-66
2023/08/31 09:52:30;;;;;;;6.10;5.50;;;22.70;99.90;;;;;;6202995;28;95138;-66
2023/08/31 09:55:33;;;;;;;6.05;5.45;;;22.70;99.90;;;;;;6195874;28;94036;-66
2023/08/31 09:58:35;;;;;;;5.60;5.05;;;22.70;99.90;;;;;;6195869;28;94455;-66
2023/08/31 10:01:39;;;;;;;5.72;5.07;;;22.70;99.90;;;;;;6193050;28;94511;-66
2023/08/31 10:04:41;;;;;;;6.35;5.65;;;22.70;99.90;;;;;;6197919;28;94110;-66
2023/08/31 10:07:44;;;;;;;5.43;4.90;;;22.70;99.90;;;;;;6197350;28;94215;-66
2023/08/31 10:10:47;;;;;;;5.60;4.95;;;22.70;99.90;;;;;;6200942;28;92228;-66
2023/08/31 10:13:51;;;;;;;5.30;4.80;;;22.80;99.90;;;;;;6203274;28;94151;-67
2023/08/31 10:16:56;;;;;;;11.60;10.60;;;22.70;99.90;;;;;;6202868;28;94425;-66
2023/08/31 10:19:59;;;;;;;35.90;33.33;;;22.70;99.90;;;;;;6187125;28;95691;-66
2023/08/31 10:23:04;;;;;;;39.47;36.80;;;22.80;99.90;;;;;;6195224;28;94361;-66
2023/08/31 10:26:06;;;;;;;38.30;35.70;;;22.80;99.90;;;;;;6194007;28;94027;-67
2023/08/31 10:29:26;;;;;;;58.17;54.22;;;22.80;99.90;;;;;;6195066;28;94135;-67
2023/08/31 10:32:29;;;;;;;57.03;52.50;;;22.90;99.90;;;;;;6198013;28;92991;-66
2023/08/31 10:35:42;;;;;;;24.33;22.25;;;22.90;99.90;;;;;;6195086;28;94090;-68
2023/08/31 10:38:47;;;;;;;22.92;21.23;;;23.00;99.90;;;;;;6192962;28;94048;-67
2023/08/31 10:41:55;;;;;;;22.42;20.65;;;23.00;99.90;;;;;;6192794;28;93691;-67
2023/08/31 10:45:06;;;;;;;21.63;20.02;;;23.00;99.90;;;;;;6186298;28;94163;-67
2023/08/31 10:48:13;;;;;;;20.95;19.35;;;23.10;99.90;;;;;;6189895;28;94105;-67
2023/08/31 10:51:18;;;;;;;20.95;19.35;;;23.10;99.90;;;;;;6186835;28;95148;-67
2023/08/31 10:54:24;;;;;;;19.88;18.48;;;23.10;99.90;;;;;;6196465;28;94013;-67
2023/08/31 10:57:31;;;;;;;139.23;77.03;;;23.10;99.90;;;;;;6195046;28;94224;-67
2023/08/31 11:00:51;;;;;;;52.65;36.80;;;23.10;99.90;;;;;;6198728;28;94365;-66
2023/08/31 11:04:00;;;;;;;55.72;37.28;;;23.00;99.90;;;;;;6200017;28;94068;-66
2023/08/31 11:07:16;;;;;;;49.17;32.72;;;23.00;99.90;;;;;;6197771;28;94487;-67
2023/08/31 11:10:19;;;;;;;46.30;33.08;;;23.00;99.90;;;;;;6201179;28;94113;-67
2023/08/31 11:13:21;;;;;;;46.15;31.60;;;23.00;99.90;;;;;;6196287;28;92428;-67
2023/08/31 11:16:23;;;;;;;42.65;30.27;;;23.00;99.90;;;;;;6199298;28;94056;-66
2023/08/31 11:19:27;;;;;;;41.42;30.25;;;23.00;99.90;;;;;;6196913;28;94104;-67
2023/08/31 11:22:29;;;;;;;39.70;28.42;;;23.00;99.90;;;;;;6198279;28;95075;-67
2023/08/31 11:25:32;;;;;;;36.58;26.40;;;23.00;99.90;;;;;;6189743;28;93030;-67
2023/08/31 11:28:35;;;;;;;31.17;25.75;;;23.00;99.90;;;;;;6198555;28;93088;-66
2023/08/31 11:31:41;;;;;;;33.92;24.27;;;23.00;99.90;;;;;;6200509;28;94129;-67
2023/08/31 11:34:46;;;;;;;28.83;23.80;;;23.00;99.90;;;;;;6200159;28;94246;-67
2023/08/31 11:37:52;;;;;;;28.33;21.75;;;23.00;99.90;;;;;;6192920;28;94127;-67
2023/08/31 11:40:57;;;;;;;28.00;22.52;;;23.00;99.90;;;;;;6187344;28;94111;-67
2023/08/31 11:44:00;;;;;;;29.35;21.58;;;23.00;99.90;;;;;;6192304;28;93451;-67
2023/08/31 11:47:02;;;;;;;26.40;20.90;;;23.00;99.90;;;;;;6192084;28;94078;-66
2023/08/31 11:50:08;;;;;;;24.15;19.85;;;23.00;99.90;;;;;;6197831;28;94039;-67
2023/08/31 11:53:10;;;;;;;24.02;19.70;;;23.00;99.90;;;;;;6191477;28;95061;-67
2023/08/31 11:56:12;;;;;;;24.63;19.38;;;23.00;99.90;;;;;;6192390;28;94142;-67
2023/08/31 11:59:16;;;;;;;23.98;18.73;;;23.00;99.90;;;;;;6198376;28;94171;-67
2023/08/31 12:02:20;;;;;;;22.50;17.75;;;23.00;99.90;;;;;;6201722;28;94392;-67
2023/08/31 12:05:24;;;;;;;21.67;17.27;;;23.00;99.90;;;;;;6190492;28;94273;-67
2023/08/31 12:08:26;;;;;;;19.17;16.38;;;23.00;99.90;;;;;;6199644;28;94379;-67
2023/08/31 12:11:28;;;;;;;18.88;16.13;;;23.00;99.90;;;;;;6204000;28;94815;-67
2023/08/31 12:14:30;;;;;;;20.40;16.23;;;23.00;99.90;;;;;;6204066;28;93444;-66
2023/08/31 12:17:32;;;;;;;20.50;16.10;;;23.00;99.90;;;;;;6192320;28;94203;-66
2023/08/31 12:20:40;;;;;;;20.85;16.40;;;23.00;99.90;;;;;;6186640;28;94090;-67
2023/08/31 12:23:42;;;;;;;20.08;16.83;;;23.00;99.90;;;;;;6201887;28;95232;-66
2023/08/31 12:26:44;;;;;;;20.05;15.95;;;23.00;99.90;;;;;;6202500;28;94228;-67
2023/08/31 12:29:46;;;;;;;19.30;16.23;;;23.00;99.90;;;;;;6195140;28;94080;-66
2023/08/31 12:32:48;;;;;;;18.48;15.60;;;23.00;99.90;;;;;;6197451;28;94108;-67
2023/08/31 12:35:52;;;;;;;18.67;15.50;;;23.00;99.90;;;;;;6199418;28;94215;-67
2023/08/31 12:38:54;;;;;;;16.55;14.52;;;23.00;99.90;;;;;;6196139;28;94634;-67
2023/08/31 12:41:56;;;;;;;18.95;14.70;;;23.00;99.90;;;;;;6192829;28;94399;-66
2023/08/31 12:44:58;;;;;;;16.52;14.60;;;23.00;99.90;;;;;;6204457;28;93539;-66
2023/08/31 12:48:00;;;;;;;16.50;14.70;;;23.00;99.90;;;;;;6198020;28;93042;-67
2023/08/31 12:51:04;;;;;;;16.48;13.80;;;23.00;99.90;;;;;;6190650;28;94161;-67
2023/08/31 12:54:06;;;;;;;15.68;13.98;;;23.00;99.90;;;;;;6178117;28;94923;-67
2023/08/31 12:57:08;;;;;;;15.07;13.55;;;23.00;99.90;;;;;;6188397;28;94065;-67
2023/08/31 13:00:12;;;;;;;16.48;13.57;;;23.00;99.90;;;;;;6201770;28;94211;-67
2023/08/31 13:03:14;;;;;;;14.63;13.00;;;23.00;99.90;;;;;;6199602;28;94461;-67
2023/08/31 13:06:17;;;;;;;15.88;13.52;;;23.00;99.90;;;;;;6197444;28;94707;-67
2023/08/31 13:09:19;;;;;;;14.20;12.70;;;23.00;99.90;;;;;;6192917;28;93988;-67
2023/08/31 13:12:21;;;;;;;15.27;12.93;;;22.90;99.90;;;;;;6187342;28;94541;-67
2023/08/31 13:15:23;;;;;;;16.08;12.95;;;23.00;99.90;;;;;;6187070;28;93356;-67
2023/08/31 13:18:25;;;;;;;14.32;12.30;;;22.90;99.90;;;;;;6186403;28;95198;-67
2023/08/31 13:21:29;;;;;;;13.70;12.27;;;23.00;99.90;;;;;;6194273;28;94302;-67
2023/08/31 13:24:31;;;;;;;13.50;12.10;;;23.00;99.90;;;;;;6200828;28;94091;-67
2023/08/31 13:27:34;;;;;;;13.65;11.43;;;23.00;99.90;;;;;;6195805;28;94199;-67
2023/08/31 13:30:36;;;;;;;13.43;12.05;;;23.00;99.90;;;;;;6198178;28;94175;-67
2023/08/31 13:33:38;;;;;;;14.60;11.68;;;23.00;99.90;;;;;;6196619;28;94228;-67
2023/08/31 13:36:42;;;;;;;13.68;11.93;;;23.00;99.90;;;;;;6200198;28;94165;-67
2023/08/31 13:39:44;;;;;;;12.52;10.95;;;23.00;99.90;;;;;;6198161;28;94587;-67
2023/08/31 13:42:56;;;;;;;14.18;11.27;;;23.00;99.90;;;;;;6196282;28;94161;-67
2023/08/31 13:45:58;;;;;;;13.35;11.27;;;23.00;99.90;;;;;;6187130;28;93639;-67
2023/08/31 13:49:01;;;;;;;11.43;10.23;;;23.00;99.90;;;;;;6193272;28;94114;-67
2023/08/31 13:52:06;;;;;;;11.77;10.65;;;23.00;99.90;;;;;;6186759;28;94276;-67
2023/08/31 13:55:09;;;;;;;13.85;10.68;;;22.90;99.90;;;;;;6190113;28;95145;-67
2023/08/31 13:58:11;;;;;;;12.38;10.57;;;22.90;99.90;;;;;;6193841;28;94021;-67
2023/08/31 14:01:14;;;;;;;12.05;10.77;;;23.00;99.90;;;;;;6200241;28;94175;-67
2023/08/31 14:04:16;;;;;;;12.13;10.32;;;22.90;99.90;;;;;;6201830;28;94547;-67
2023/08/31 14:07:21;;;;;;;13.32;10.88;;;22.90;99.90;;;;;;6194448;28;94192;-67
2023/08/31 14:10:23;;;;;;;10.57;9.48;;;22.90;99.90;;;;;;6195039;28;93052;-68
2023/08/31 14:13:25;;;;;;;10.35;9.27;;;22.90;99.90;;;;;;6202183;28;93278;-68
2023/08/31 14:16:28;;;;;;;11.50;9.43;;;22.90;99.90;;;;;;6199726;28;93356;-67
2023/08/31 14:19:30;;;;;;;10.73;9.63;;;22.90;99.90;;;;;;6192834;28;94335;-67
2023/08/31 14:22:33;;;;;;;10.18;9.23;;;22.90;99.90;;;;;;6203551;28;94747;-67
2023/08/31 14:25:38;;;;;;;9.90;8.98;;;22.90;99.90;;;;;;6201333;28;95726;-68
2023/08/31 14:28:40;;;;;;;9.70;8.80;;;22.90;99.90;;;;;;6202088;28;94204;-68
2023/08/31 14:31:43;;;;;;;9.82;8.85;;;22.90;99.90;;;;;;6199077;28;94464;-67
2023/08/31 14:34:46;;;;;;;9.85;8.85;;;22.90;99.90;;;;;;6194896;28;94050;-68
2023/08/31 14:37:51;;;;;;;9.82;8.75;;;22.90;99.90;;;;;;6191759;28;93298;-68
2023/08/31 14:40:55;;;;;;;9.05;8.25;;;22.90;99.90;;;;;;6184277;28;93279;-68
2023/08/31 14:43:58;;;;;;;10.48;8.93;;;22.90;99.90;;;;;;6194866;28;93073;-68
2023/08/31 14:47:02;;;;;;;9.30;8.40;;;22.90;99.90;;;;;;6193122;28;92332;-68
2023/08/31 14:50:07;;;;;;;9.93;8.93;;;22.90;99.90;;;;;;6201630;28;93055;-68
2023/08/31 14:53:12;;;;;;;8.80;7.90;;;22.90;99.90;;;;;;6199717;28;93160;-68
2023/08/31 14:56:16;;;;;;;9.55;8.60;;;22.90;99.90;;;;;;6200162;28;93069;-68
2023/08/31 14:59:20;;;;;;;9.85;8.48;;;22.90;99.90;;;;;;6200412;28;93053;-68
2023/08/31 15:02:23;;;;;;;8.80;7.95;;;22.80;99.90;;;;;;6199854;28;95497;-67
2023/08/31 15:05:30;;;;;;;8.32;7.53;;;22.80;99.90;;;;;;6198176;28;93466;-67
2023/08/31 15:08:42;;;;;;;9.07;7.57;;;22.90;99.90;;;;;;6185224;28;93047;-68
2023/08/31 15:11:46;;;;;;;9.13;7.40;;;22.90;99.90;;;;;;6190649;28;93330;-67
2023/08/31 15:14:49;;;;;;;7.35;6.65;;;22.90;99.90;;;;;;6196991;28;93052;-67
2023/08/31 15:17:53;;;;;;;8.00;6.50;;;22.90;99.90;;;;;;6199360;28;92274;-67
2023/08/31 15:20:57;;;;;;;6.68;6.00;;;22.80;99.90;;;;;;6196300;28;93511;-67
2023/08/31 15:24:04;;;;;;;6.43;5.70;;;22.90;99.90;;;;;;6187221;28;94908;-66
2023/08/31 15:27:07;;;;;;;5.60;5.10;;;22.80;99.90;;;;;;6187641;28;94872;-67
2023/08/31 15:30:12;;;;;;;5.57;5.05;;;22.80;99.90;;;;;;6197765;28;93690;-66
2023/08/31 15:33:16;;;;;;;5.25;4.75;;;22.90;99.90;;;;;;6192696;28;93067;-67
2023/08/31 15:36:19;;;;;;;5.10;4.60;;;22.80;99.90;;;;;;6196826;28;93113;-67
2023/08/31 15:39:25;;;;;;;6.38;4.70;;;22.80;99.90;;;;;;6199849;28;94662;-67